sensor_id;sensor_type;location;lat;lon;timestamp;pressure;altitude;pressure_sealevel;temperature;humidity
49529;BME280;35423;37.320;-121.762;2023-10-31T00:01:58;100232.84;;;43.06;1.69
49529;BME280;35423;37.320;-121.762;2023-10-31T00:04:38;100233.29;;;43.24;1.81
49529;BME280;35423;37.320;-121.762;2023-10-31T00:07:13;100232.71;;;43.38;1.92
49529;BME280;35423;37.320;-121.762;2023-10-31T00:09:39;100231.02;;;43.42;2.01
49529;BME280;35423;37.320;-121.762;2023-10-31T00:12:07;100233.85;;;42.67;2.24
49529;BME280;35423;37.320;-121.762;2023-10-31T00:14:35;100232.31;;;42.18;2.42
49529;BME280;35423;37.320;-121.762;2023-10-31T00:17:02;100233.63;;;42.28;2.63
49529;BME280;35423;37.320;-121.762;2023-10-31T00:19:35;100231.53;;;41.75;2.75
49529;BME280;35423;37.320;-121.762;2023-10-31T00:22:00;100232.16;;;41.96;2.86
49529;BME280;35423;37.320;-121.762;2023-10-31T00:24:34;100233.20;;;41.64;2.99
49529;BME280;35423;37.320;-121.762;2023-10-31T00:27:01;100233.86;;;41.09;3.17
49529;BME280;35423;37.320;-121.762;2023-10-31T00:29:31;100238.99;;;40.79;3.28
49529;BME280;35423;37.320;-121.762;2023-10-31T00:31:57;100239.02;;;40.17;3.44
49529;BME280;35423;37.320;-121.762;2023-10-31T00:34:35;100242.73;;;40.35;3.62
49529;BME280;35423;37.320;-121.762;2023-10-31T00:37:02;100242.52;;;39.98;3.79
49529;BME280;35423;37.320;-121.762;2023-10-31T00:39:30;100246.99;;;39.54;3.83
49529;BME280;35423;37.320;-121.762;2023-10-31T00:41:57;100247.65;;;39.42;3.90
49529;BME280;35423;37.320;-121.762;2023-10-31T00:44:24;100245.03;;;39.48;3.96
49529;BME280;35423;37.320;-121.762;2023-10-31T00:46:50;100249.16;;;38.54;4.05
49529;BME280;35423;37.320;-121.762;2023-10-31T00:49:18;100251.05;;;38.63;4.10
49529;BME280;35423;37.320;-121.762;2023-10-31T00:51:49;100249.93;;;38.02;4.19
49529;BME280;35423;37.320;-121.762;2023-10-31T00:54:18;100250.17;;;38.00;4.21
49529;BME280;35423;37.320;-121.762;2023-10-31T00:56:45;100248.46;;;36.59;4.26
49529;BME280;35423;37.320;-121.762;2023-10-31T00:59:11;100249.01;;;37.22;4.40
49529;BME280;35423;37.320;-121.762;2023-10-31T01:01:37;100249.47;;;36.65;4.46
49529;BME280;35423;37.320;-121.762;2023-10-31T01:04:02;100250.44;;;36.19;4.62
49529;BME280;35423;37.320;-121.762;2023-10-31T01:06:27;100251.34;;;35.80;4.74
49529;BME280;35423;37.320;-121.762;2023-10-31T01:08:59;100253.46;;;35.61;4.88
49529;BME280;35423;37.320;-121.762;2023-10-31T01:11:27;100249.56;;;34.80;4.98
49529;BME280;35423;37.320;-121.762;2023-10-31T01:13:54;100252.88;;;35.28;5.05
49529;BME280;35423;37.320;-121.762;2023-10-31T01:16:21;100254.98;;;35.08;5.13
49529;BME280;35423;37.320;-121.762;2023-10-31T01:18:50;100253.10;;;34.83;5.24
49529;BME280;35423;37.320;-121.762;2023-10-31T01:21:19;100252.73;;;34.60;5.34
49529;BME280;35423;37.320;-121.762;2023-10-31T01:23:44;100254.74;;;34.92;5.44
49529;BME280;35423;37.320;-121.762;2023-10-31T01:26:15;100255.45;;;34.69;5.58
49529;BME280;35423;37.320;-121.762;2023-10-31T01:28:40;100258.99;;;34.50;5.69
49529;BME280;35423;37.320;-121.762;2023-10-31T01:31:06;100261.57;;;34.46;5.80
49529;BME280;35423;37.320;-121.762;2023-10-31T01:33:36;100262.53;;;34.24;5.92
49529;BME280;35423;37.320;-121.762;2023-10-31T01:36:04;100263.35;;;34.16;6.08
49529;BME280;35423;37.320;-121.762;2023-10-31T01:38:31;100264.84;;;33.97;6.23
49529;BME280;35423;37.320;-121.762;2023-10-31T01:41:01;100267.55;;;33.24;6.32
49529;BME280;35423;37.320;-121.762;2023-10-31T01:43:36;100269.30;;;33.36;6.32
49529;BME280;35423;37.320;-121.762;2023-10-31T01:46:02;100270.81;;;32.87;6.39
49529;BME280;35423;37.320;-121.762;2023-10-31T01:48:29;100271.46;;;33.13;6.40
49529;BME280;35423;37.320;-121.762;2023-10-31T01:50:56;100273.10;;;32.46;6.29
49529;BME280;35423;37.320;-121.762;2023-10-31T01:53:26;100273.13;;;32.71;6.25
49529;BME280;35423;37.320;-121.762;2023-10-31T01:55:51;100273.24;;;32.66;6.30
49529;BME280;35423;37.320;-121.762;2023-10-31T01:58:20;100274.64;;;32.42;6.40
49529;BME280;35423;37.320;-121.762;2023-10-31T02:00:47;100274.60;;;31.70;6.49
49529;BME280;35423;37.320;-121.762;2023-10-31T02:03:24;100275.94;;;32.29;6.55
49529;BME280;35423;37.320;-121.762;2023-10-31T02:05:51;100276.14;;;31.91;6.66
49529;BME280;35423;37.320;-121.762;2023-10-31T02:08:17;100277.94;;;32.00;6.79
49529;BME280;35423;37.320;-121.762;2023-10-31T02:10:43;100280.54;;;31.55;6.94
49529;BME280;35423;37.320;-121.762;2023-10-31T02:13:13;100282.68;;;31.66;7.01
49529;BME280;35423;37.320;-121.762;2023-10-31T02:15:34;100286.28;;;31.83;7.15
49529;BME280;35423;37.320;-121.762;2023-10-31T02:18:13;100289.56;;;31.12;7.23
49529;BME280;35423;37.320;-121.762;2023-10-31T02:20:39;100294.47;;;31.26;7.22
49529;BME280;35423;37.320;-121.762;2023-10-31T02:23:04;100296.97;;;30.93;7.27
49529;BME280;35423;37.320;-121.762;2023-10-31T02:25:31;100299.38;;;31.24;7.33
49529;BME280;35423;37.320;-121.762;2023-10-31T02:28:01;100299.29;;;30.60;7.39
49529;BME280;35423;37.320;-121.762;2023-10-31T02:30:31;100301.49;;;31.21;7.36
49529;BME280;35423;37.320;-121.762;2023-10-31T02:32:59;100305.70;;;30.86;7.40
49529;BME280;35423;37.320;-121.762;2023-10-31T02:35:24;100305.94;;;30.89;7.47
49529;BME280;35423;37.320;-121.762;2023-10-31T02:37:50;100303.33;;;30.68;7.53
49529;BME280;35423;37.320;-121.762;2023-10-31T02:40:18;100302.31;;;30.53;7.64
49529;BME280;35423;37.320;-121.762;2023-10-31T02:42:48;100306.11;;;30.12;7.70
49529;BME280;35423;37.320;-121.762;2023-10-31T02:45:14;100305.78;;;29.58;7.70
49529;BME280;35423;37.320;-121.762;2023-10-31T02:47:43;100305.58;;;29.86;7.67
49529;BME280;35423;37.320;-121.762;2023-10-31T02:50:10;100301.60;;;30.03;7.70
49529;BME280;35423;37.320;-121.762;2023-10-31T02:52:34;100302.04;;;30.32;7.83
49529;BME280;35423;37.320;-121.762;2023-10-31T02:54:59;100301.88;;;29.83;7.95
49529;BME280;35423;37.320;-121.762;2023-10-31T02:57:27;100302.48;;;29.75;8.08
49529;BME280;35423;37.320;-121.762;2023-10-31T02:59:55;100303.47;;;29.46;8.01
49529;BME280;35423;37.320;-121.762;2023-10-31T03:02:19;100303.47;;;29.80;8.08
49529;BME280;35423;37.320;-121.762;2023-10-31T03:04:50;100304.52;;;29.42;8.11
49529;BME280;35423;37.320;-121.762;2023-10-31T03:07:16;100307.08;;;29.59;8.16
49529;BME280;35423;37.320;-121.762;2023-10-31T03:09:42;100309.58;;;29.24;8.21
49529;BME280;35423;37.320;-121.762;2023-10-31T03:12:15;100310.95;;;29.35;8.31
49529;BME280;35423;37.320;-121.762;2023-10-31T03:14:43;100314.87;;;28.81;8.33
49529;BME280;35423;37.320;-121.762;2023-10-31T03:17:16;100316.07;;;29.18;8.38
49529;BME280;35423;37.320;-121.762;2023-10-31T03:19:44;100317.74;;;29.01;8.45
49529;BME280;35423;37.320;-121.762;2023-10-31T03:22:13;100318.18;;;29.04;8.68
49529;BME280;35423;37.320;-121.762;2023-10-31T03:24:38;100321.34;;;29.04;8.68
49529;BME280;35423;37.320;-121.762;2023-10-31T03:27:04;100324.29;;;29.12;8.71
49529;BME280;35423;37.320;-121.762;2023-10-31T03:29:36;100329.07;;;28.96;8.73
49529;BME280;35423;37.320;-121.762;2023-10-31T03:32:01;100333.70;;;28.73;8.82
49529;BME280;35423;37.320;-121.762;2023-10-31T03:34:26;100334.84;;;28.61;8.88
49529;BME280;35423;37.320;-121.762;2023-10-31T03:36:51;100337.46;;;28.04;8.96
49529;BME280;35423;37.320;-121.762;2023-10-31T03:39:19;100339.03;;;28.41;9.01
49529;BME280;35423;37.320;-121.762;2023-10-31T03:42:01;100338.84;;;28.29;9.07
49529;BME280;35423;37.320;-121.762;2023-10-31T03:44:30;100339.85;;;28.51;9.16
49529;BME280;35423;37.320;-121.762;2023-10-31T03:46:56;100342.46;;;28.39;9.28
49529;BME280;35423;37.320;-121.762;2023-10-31T03:49:21;100341.85;;;28.48;9.39
49529;BME280;35423;37.320;-121.762;2023-10-31T03:51:46;100343.18;;;28.30;9.47
49529;BME280;35423;37.320;-121.762;2023-10-31T03:54:17;100346.68;;;27.74;9.54
49529;BME280;35423;37.320;-121.762;2023-10-31T03:56:43;100347.80;;;27.66;9.63
49529;BME280;35423;37.320;-121.762;2023-10-31T03:59:10;100348.15;;;28.05;9.69
49529;BME280;35423;37.320;-121.762;2023-10-31T04:01:36;100345.17;;;27.63;9.81
49529;BME280;35423;37.320;-121.762;2023-10-31T04:04:02;100346.95;;;27.75;9.89
49529;BME280;35423;37.320;-121.762;2023-10-31T04:06:28;100350.09;;;26.67;9.95
49529;BME280;35423;37.320;-121.762;2023-10-31T04:08:57;100349.74;;;27.59;9.97
49529;BME280;35423;37.320;-121.762;2023-10-31T04:11:22;100350.16;;;26.73;10.06
49529;BME280;35423;37.320;-121.762;2023-10-31T04:13:48;100349.60;;;27.26;10.09
49529;BME280;35423;37.320;-121.762;2023-10-31T04:16:16;100345.30;;;27.37;10.26
49529;BME280;35423;37.320;-121.762;2023-10-31T04:18:42;100347.10;;;26.77;10.26
49529;BME280;35423;37.320;-121.762;2023-10-31T04:21:13;100347.73;;;27.55;10.39
49529;BME280;35423;37.320;-121.762;2023-10-31T04:23:41;100348.29;;;27.07;10.47
49529;BME280;35423;37.320;-121.762;2023-10-31T04:26:07;100346.20;;;27.22;10.59
49529;BME280;35423;37.320;-121.762;2023-10-31T04:28:34;100347.53;;;27.38;10.68
49529;BME280;35423;37.320;-121.762;2023-10-31T04:31:00;100350.07;;;27.21;10.83
49529;BME280;35423;37.320;-121.762;2023-10-31T04:33:27;100353.76;;;26.71;10.86
49529;BME280;35423;37.320;-121.762;2023-10-31T04:35:55;100355.57;;;27.07;10.97
49529;BME280;35423;37.320;-121.762;2023-10-31T04:38:21;100356.46;;;26.96;11.02
49529;BME280;35423;37.320;-121.762;2023-10-31T04:40:47;100357.13;;;26.43;11.05
49529;BME280;35423;37.320;-121.762;2023-10-31T04:43:15;100362.02;;;26.73;11.03
49529;BME280;35423;37.320;-121.762;2023-10-31T04:45:43;100363.86;;;26.57;11.01
49529;BME280;35423;37.320;-121.762;2023-10-31T04:48:08;100364.05;;;26.70;10.96
49529;BME280;35423;37.320;-121.762;2023-10-31T04:50:36;100366.34;;;26.88;11.04
49529;BME280;35423;37.320;-121.762;2023-10-31T04:53:00;100366.94;;;26.62;11.06
49529;BME280;35423;37.320;-121.762;2023-10-31T04:55:25;100370.36;;;26.95;11.15
49529;BME280;35423;37.320;-121.762;2023-10-31T04:57:52;100370.94;;;26.77;11.26
49529;BME280;35423;37.320;-121.762;2023-10-31T05:00:19;100375.05;;;26.58;11.40
49529;BME280;35423;37.320;-121.762;2023-10-31T05:02:53;100377.68;;;26.43;11.48
49529;BME280;35423;37.320;-121.762;2023-10-31T05:05:18;100382.58;;;26.33;11.53
49529;BME280;35423;37.320;-121.762;2023-10-31T05:07:43;100386.86;;;25.84;11.52
49529;BME280;35423;37.320;-121.762;2023-10-31T05:10:10;100391.43;;;26.08;11.62
49529;BME280;35423;37.320;-121.762;2023-10-31T05:12:36;100391.17;;;26.14;11.71
49529;BME280;35423;37.320;-121.762;2023-10-31T05:15:03;100397.35;;;25.79;11.73
49529;BME280;35423;37.320;-121.762;2023-10-31T05:17:28;100400.11;;;25.94;11.75
49529;BME280;35423;37.320;-121.762;2023-10-31T05:20:00;100400.30;;;26.06;11.80
49529;BME280;35423;37.320;-121.762;2023-10-31T05:22:33;100400.13;;;25.70;11.83
49529;BME280;35423;37.320;-121.762;2023-10-31T05:25:05;100400.12;;;25.67;11.80
49529;BME280;35423;37.320;-121.762;2023-10-31T05:27:31;100397.97;;;24.93;11.81
49529;BME280;35423;37.320;-121.762;2023-10-31T05:29:59;100401.50;;;25.28;11.87
49529;BME280;35423;37.320;-121.762;2023-10-31T05:32:24;100397.92;;;25.75;11.98
49529;BME280;35423;37.320;-121.762;2023-10-31T05:34:52;100397.83;;;25.12;11.91
49529;BME280;35423;37.320;-121.762;2023-10-31T05:37:18;100396.40;;;25.48;11.99
49529;BME280;35423;37.320;-121.762;2023-10-31T05:39:43;100395.44;;;24.84;12.08
49529;BME280;35423;37.320;-121.762;2023-10-31T05:42:08;100393.65;;;25.23;12.11
49529;BME280;35423;37.320;-121.762;2023-10-31T05:44:39;100395.70;;;25.50;12.20
49529;BME280;35423;37.320;-121.762;2023-10-31T05:47:06;100392.03;;;24.89;12.30
49529;BME280;35423;37.320;-121.762;2023-10-31T05:49:35;100393.17;;;25.31;12.33
49529;BME280;35423;37.320;-121.762;2023-10-31T05:52:04;100392.96;;;24.86;12.31
49529;BME280;35423;37.320;-121.762;2023-10-31T05:54:32;100391.42;;;24.77;12.39
49529;BME280;35423;37.320;-121.762;2023-10-31T05:56:58;100391.63;;;24.78;12.43
49529;BME280;35423;37.320;-121.762;2023-10-31T05:59:28;100394.02;;;24.82;12.45
49529;BME280;35423;37.320;-121.762;2023-10-31T06:01:55;100395.97;;;25.26;12.48
49529;BME280;35423;37.320;-121.762;2023-10-31T06:04:23;100398.43;;;25.09;12.57
49529;BME280;35423;37.320;-121.762;2023-10-31T06:06:59;100404.42;;;24.73;12.69
49529;BME280;35423;37.320;-121.762;2023-10-31T06:09:25;100403.40;;;24.92;12.75
49529;BME280;35423;37.320;-121.762;2023-10-31T06:11:51;100404.76;;;24.33;12.89
49529;BME280;35423;37.320;-121.762;2023-10-31T06:14:19;100404.19;;;24.69;12.88
49529;BME280;35423;37.320;-121.762;2023-10-31T06:16:47;100403.95;;;23.87;12.88
49529;BME280;35423;37.320;-121.762;2023-10-31T06:19:11;100404.87;;;24.45;12.99
49529;BME280;35423;37.320;-121.762;2023-10-31T06:21:37;100405.59;;;24.24;12.93
49529;BME280;35423;37.320;-121.762;2023-10-31T06:24:10;100408.24;;;24.47;12.91
49529;BME280;35423;37.320;-121.762;2023-10-31T06:26:35;100408.02;;;24.00;13.01
49529;BME280;35423;37.320;-121.762;2023-10-31T06:29:00;100405.08;;;23.93;13.02
49529;BME280;35423;37.320;-121.762;2023-10-31T06:31:25;100403.56;;;23.10;13.05
49529;BME280;35423;37.320;-121.762;2023-10-31T06:33:53;100400.55;;;23.78;13.02
49529;BME280;35423;37.320;-121.762;2023-10-31T06:36:20;100400.88;;;23.29;12.98
49529;BME280;35423;37.320;-121.762;2023-10-31T06:38:48;100400.06;;;23.98;12.99
49529;BME280;35423;37.320;-121.762;2023-10-31T06:41:18;100399.58;;;23.61;13.07
49529;BME280;35423;37.320;-121.762;2023-10-31T06:43:44;100400.93;;;23.41;13.14
49529;BME280;35423;37.320;-121.762;2023-10-31T06:46:13;100401.15;;;24.04;13.21
49529;BME280;35423;37.320;-121.762;2023-10-31T06:48:41;100401.04;;;23.99;13.25
49529;BME280;35423;37.320;-121.762;2023-10-31T06:51:08;100400.99;;;23.84;13.31
49529;BME280;35423;37.320;-121.762;2023-10-31T06:53:36;100402.85;;;23.80;13.37
49529;BME280;35423;37.320;-121.762;2023-10-31T06:56:05;100403.34;;;23.14;13.51
49529;BME280;35423;37.320;-121.762;2023-10-31T06:58:33;100406.14;;;23.61;13.52
49529;BME280;35423;37.320;-121.762;2023-10-31T07:00:58;100405.14;;;23.01;13.55
49529;BME280;35423;37.320;-121.762;2023-10-31T07:03:23;100404.49;;;23.41;13.49
49529;BME280;35423;37.320;-121.762;2023-10-31T07:05:49;100402.71;;;23.49;13.52
49529;BME280;35423;37.320;-121.762;2023-10-31T07:08:14;100400.87;;;23.11;13.57
49529;BME280;35423;37.320;-121.762;2023-10-31T07:10:44;100399.09;;;23.18;13.63
49529;BME280;35423;37.320;-121.762;2023-10-31T07:13:09;100400.66;;;23.02;13.60
49529;BME280;35423;37.320;-121.762;2023-10-31T07:15:41;100401.92;;;23.45;13.70
49529;BME280;35423;37.320;-121.762;2023-10-31T07:18:07;100403.26;;;22.95;13.73
49529;BME280;35423;37.320;-121.762;2023-10-31T07:20:34;100400.62;;;23.06;13.82
49529;BME280;35423;37.320;-121.762;2023-10-31T07:23:00;100399.57;;;22.68;13.86
49529;BME280;35423;37.320;-121.762;2023-10-31T07:25:31;100401.95;;;23.02;13.91
49529;BME280;35423;37.320;-121.762;2023-10-31T07:28:03;100399.85;;;22.66;13.92
49529;BME280;35423;37.320;-121.762;2023-10-31T07:30:30;100399.58;;;22.86;13.96
49529;BME280;35423;37.320;-121.762;2023-10-31T07:33:02;100400.97;;;22.49;14.04
49529;BME280;35423;37.320;-121.762;2023-10-31T07:35:29;100405.82;;;22.36;14.18
49529;BME280;35423;37.320;-121.762;2023-10-31T07:38:02;100403.12;;;22.50;14.33
49529;BME280;35423;37.320;-121.762;2023-10-31T07:40:25;100397.85;;;22.62;14.35
49529;BME280;35423;37.320;-121.762;2023-10-31T07:45:17;100391.31;;;22.60;14.18
49529;BME280;35423;37.320;-121.762;2023-10-31T07:47:42;100389.56;;;22.14;14.18
49529;BME280;35423;37.320;-121.762;2023-10-31T07:50:09;100389.66;;;22.41;14.09
49529;BME280;35423;37.320;-121.762;2023-10-31T07:52:35;100389.39;;;22.87;14.05
49529;BME280;35423;37.320;-121.762;2023-10-31T07:55:03;100390.26;;;22.69;14.08
49529;BME280;35423;37.320;-121.762;2023-10-31T07:57:27;100389.67;;;22.50;14.18
49529;BME280;35423;37.320;-121.762;2023-10-31T08:00:01;100389.69;;;21.87;14.24
49529;BME280;35423;37.320;-121.762;2023-10-31T08:02:26;100386.34;;;22.18;14.41
49529;BME280;35423;37.320;-121.762;2023-10-31T08:04:54;100387.36;;;21.89;14.41
49529;BME280;35423;37.320;-121.762;2023-10-31T08:07:20;100386.67;;;21.99;14.47
49529;BME280;35423;37.320;-121.762;2023-10-31T08:09:49;100389.00;;;21.40;14.55
49529;BME280;35423;37.320;-121.762;2023-10-31T08:12:12;100388.99;;;22.01;14.73
49529;BME280;35423;37.320;-121.762;2023-10-31T08:14:38;100388.87;;;21.79;14.87
49529;BME280;35423;37.320;-121.762;2023-10-31T08:17:08;100388.41;;;21.71;15.09
49529;BME280;35423;37.320;-121.762;2023-10-31T08:19:41;100387.59;;;22.10;15.17
49529;BME280;35423;37.320;-121.762;2023-10-31T08:22:08;100383.88;;;21.49;15.04
49529;BME280;35423;37.320;-121.762;2023-10-31T08:24:39;100380.56;;;21.65;14.93
49529;BME280;35423;37.320;-121.762;2023-10-31T08:26:58;100379.00;;;21.34;14.90
49529;BME280;35423;37.320;-121.762;2023-10-31T08:29:26;100380.20;;;21.75;14.94
49529;BME280;35423;37.320;-121.762;2023-10-31T08:31:55;100375.46;;;21.40;14.97
49529;BME280;35423;37.320;-121.762;2023-10-31T08:34:21;100373.13;;;21.66;14.98
49529;BME280;35423;37.320;-121.762;2023-10-31T08:36:50;100370.72;;;20.64;15.02
49529;BME280;35423;37.320;-121.762;2023-10-31T08:39:17;100372.12;;;21.34;15.05
49529;BME280;35423;37.320;-121.762;2023-10-31T08:41:51;100374.81;;;20.84;15.10
49529;BME280;35423;37.320;-121.762;2023-10-31T08:44:11;100377.54;;;21.26;15.12
49529;BME280;35423;37.320;-121.762;2023-10-31T08:46:38;100381.51;;;20.91;15.27
49529;BME280;35423;37.320;-121.762;2023-10-31T08:49:02;100379.01;;;21.35;15.35
49529;BME280;35423;37.320;-121.762;2023-10-31T08:51:28;100382.92;;;20.83;15.43
49529;BME280;35423;37.320;-121.762;2023-10-31T08:53:55;100384.14;;;21.37;15.44
49529;BME280;35423;37.320;-121.762;2023-10-31T08:56:26;100385.76;;;20.36;15.48
49529;BME280;35423;37.320;-121.762;2023-10-31T08:58:52;100383.94;;;20.70;15.47
49529;BME280;35423;37.320;-121.762;2023-10-31T09:01:18;100384.67;;;20.65;15.40
49529;BME280;35423;37.320;-121.762;2023-10-31T09:03:46;100384.00;;;20.40;15.40
49529;BME280;35423;37.320;-121.762;2023-10-31T09:06:12;100382.31;;;20.84;15.42
49529;BME280;35423;37.320;-121.762;2023-10-31T09:08:38;100381.10;;;20.97;15.43
49529;BME280;35423;37.320;-121.762;2023-10-31T09:11:12;100377.04;;;20.59;15.57
49529;BME280;35423;37.320;-121.762;2023-10-31T09:13:46;100377.86;;;20.84;15.58
49529;BME280;35423;37.320;-121.762;2023-10-31T09:16:13;100381.56;;;20.55;15.61
49529;BME280;35423;37.320;-121.762;2023-10-31T09:18:41;100384.53;;;20.59;15.58
49529;BME280;35423;37.320;-121.762;2023-10-31T09:21:15;100383.69;;;20.72;15.57
49529;BME280;35423;37.320;-121.762;2023-10-31T09:23:43;100382.60;;;20.90;15.55
49529;BME280;35423;37.320;-121.762;2023-10-31T09:26:12;100384.06;;;20.69;15.70
49529;BME280;35423;37.320;-121.762;2023-10-31T09:28:44;100379.51;;;20.23;15.71
49529;BME280;35423;37.320;-121.762;2023-10-31T09:31:09;100375.73;;;20.50;15.64
49529;BME280;35423;37.320;-121.762;2023-10-31T09:36:02;100380.65;;;20.51;15.56
49529;BME280;35423;37.320;-121.762;2023-10-31T09:38:26;100381.04;;;20.27;15.57
49529;BME280;35423;37.320;-121.762;2023-10-31T09:40:53;100386.55;;;20.21;15.62
49529;BME280;35423;37.320;-121.762;2023-10-31T09:43:19;100385.28;;;20.29;15.74
49529;BME280;35423;37.320;-121.762;2023-10-31T09:45:44;100385.66;;;19.63;15.88
49529;BME280;35423;37.320;-121.762;2023-10-31T09:48:12;100383.62;;;20.16;15.90
49529;BME280;35423;37.320;-121.762;2023-10-31T09:50:38;100380.07;;;20.34;16.05
49529;BME280;35423;37.320;-121.762;2023-10-31T09:53:18;100377.57;;;20.31;16.11
49529;BME280;35423;37.320;-121.762;2023-10-31T09:55:43;100376.58;;;20.06;16.10
49529;BME280;35423;37.320;-121.762;2023-10-31T09:58:11;100370.45;;;20.22;16.22
49529;BME280;35423;37.320;-121.762;2023-10-31T10:00:39;100371.47;;;20.40;16.39
49529;BME280;35423;37.320;-121.762;2023-10-31T10:03:07;100367.94;;;19.98;16.58
49529;BME280;35423;37.320;-121.762;2023-10-31T10:05:35;100366.23;;;20.12;16.64
49529;BME280;35423;37.320;-121.762;2023-10-31T10:08:06;100366.26;;;19.85;16.61
49529;BME280;35423;37.320;-121.762;2023-10-31T10:10:37;100365.19;;;19.62;16.65
49529;BME280;35423;37.320;-121.762;2023-10-31T10:13:03;100367.22;;;19.86;16.67
49529;BME280;35423;37.320;-121.762;2023-10-31T10:15:29;100367.13;;;20.08;16.80
49529;BME280;35423;37.320;-121.762;2023-10-31T10:17:58;100367.38;;;19.55;16.98
49529;BME280;35423;37.320;-121.762;2023-10-31T10:20:23;100369.53;;;19.99;17.07
49529;BME280;35423;37.320;-121.762;2023-10-31T10:22:53;100371.04;;;19.77;17.14
49529;BME280;35423;37.320;-121.762;2023-10-31T10:25:20;100372.61;;;19.67;17.30
49529;BME280;35423;37.320;-121.762;2023-10-31T10:27:45;100371.57;;;19.17;17.36
49529;BME280;35423;37.320;-121.762;2023-10-31T10:30:13;100368.43;;;19.58;17.47
49529;BME280;35423;37.320;-121.762;2023-10-31T10:32:41;100366.86;;;19.62;17.51
49529;BME280;35423;37.320;-121.762;2023-10-31T10:35:07;100367.18;;;20.11;17.50
49529;BME280;35423;37.320;-121.762;2023-10-31T10:37:32;100362.33;;;19.79;17.55
49529;BME280;35423;37.320;-121.762;2023-10-31T10:40:02;100362.61;;;19.40;17.68
49529;BME280;35423;37.320;-121.762;2023-10-31T10:42:37;100361.18;;;19.43;17.78
49529;BME280;35423;37.320;-121.762;2023-10-31T10:45:01;100363.87;;;19.41;17.67
49529;BME280;35423;37.320;-121.762;2023-10-31T10:47:23;100361.09;;;19.54;17.57
49529;BME280;35423;37.320;-121.762;2023-10-31T10:49:52;100360.14;;;19.25;17.27
49529;BME280;35423;37.320;-121.762;2023-10-31T10:52:22;100356.30;;;20.02;17.14
49529;BME280;35423;37.320;-121.762;2023-10-31T10:54:50;100355.68;;;19.45;17.15
49529;BME280;35423;37.320;-121.762;2023-10-31T10:57:20;100353.78;;;19.73;17.25
49529;BME280;35423;37.320;-121.762;2023-10-31T10:59:43;100347.90;;;19.84;17.38
49529;BME280;35423;37.320;-121.762;2023-10-31T11:02:10;100345.95;;;19.95;17.51
49529;BME280;35423;37.320;-121.762;2023-10-31T11:04:37;100346.24;;;19.61;17.53
49529;BME280;35423;37.320;-121.762;2023-10-31T11:07:01;100347.51;;;19.67;17.66
49529;BME280;35423;37.320;-121.762;2023-10-31T11:09:27;100348.89;;;19.38;17.77
49529;BME280;35423;37.320;-121.762;2023-10-31T11:11:54;100347.58;;;18.79;17.88
49529;BME280;35423;37.320;-121.762;2023-10-31T11:14:21;100343.47;;;19.40;17.75
49529;BME280;35423;37.320;-121.762;2023-10-31T11:16:51;100344.64;;;18.58;17.77
49529;BME280;35423;37.320;-121.762;2023-10-31T11:19:14;100349.75;;;19.46;17.75
49529;BME280;35423;37.320;-121.762;2023-10-31T11:24:09;100350.70;;;19.13;17.92
49529;BME280;35423;37.320;-121.762;2023-10-31T11:26:35;100349.10;;;19.01;18.00
49529;BME280;35423;37.320;-121.762;2023-10-31T11:29:04;100347.97;;;19.20;17.92
49529;BME280;35423;37.320;-121.762;2023-10-31T11:31:27;100345.88;;;18.27;17.88
49529;BME280;35423;37.320;-121.762;2023-10-31T11:33:53;100347.17;;;18.69;17.89
49529;BME280;35423;37.320;-121.762;2023-10-31T11:36:23;100343.92;;;18.55;17.99
49529;BME280;35423;37.320;-121.762;2023-10-31T11:38:46;100340.98;;;18.16;17.93
49529;BME280;35423;37.320;-121.762;2023-10-31T11:41:15;100338.31;;;18.99;18.02
49529;BME280;35423;37.320;-121.762;2023-10-31T11:43:51;100342.12;;;18.27;18.03
49529;BME280;35423;37.320;-121.762;2023-10-31T11:46:20;100343.13;;;19.13;18.22
49529;BME280;35423;37.320;-121.762;2023-10-31T11:48:49;100344.25;;;18.57;18.37
49529;BME280;35423;37.320;-121.762;2023-10-31T11:51:07;100347.52;;;18.71;18.47
49529;BME280;35423;37.320;-121.762;2023-10-31T11:53:32;100343.02;;;18.71;18.55
49529;BME280;35423;37.320;-121.762;2023-10-31T11:55:57;100344.80;;;18.70;18.51
49529;BME280;35423;37.320;-121.762;2023-10-31T11:58:26;100342.29;;;18.58;18.55
49529;BME280;35423;37.320;-121.762;2023-10-31T12:00:51;100342.08;;;18.55;18.53
49529;BME280;35423;37.320;-121.762;2023-10-31T12:05:58;100338.73;;;18.54;18.46
49529;BME280;35423;37.320;-121.762;2023-10-31T12:08:32;100335.25;;;19.04;18.53
49529;BME280;35423;37.320;-121.762;2023-10-31T12:13:23;100336.53;;;17.92;18.53
49529;BME280;35423;37.320;-121.762;2023-10-31T12:15:54;100341.77;;;18.78;18.61
49529;BME280;35423;37.320;-121.762;2023-10-31T12:18:18;100345.59;;;18.72;18.62
49529;BME280;35423;37.320;-121.762;2023-10-31T12:20:48;100348.89;;;18.01;18.62
49529;BME280;35423;37.320;-121.762;2023-10-31T12:23:09;100353.20;;;18.26;18.64
49529;BME280;35423;37.320;-121.762;2023-10-31T12:28:16;100356.93;;;18.12;18.73
49529;BME280;35423;37.320;-121.762;2023-10-31T12:30:44;100353.38;;;18.08;18.68
49529;BME280;35423;37.320;-121.762;2023-10-31T12:33:03;100356.58;;;18.09;18.65
49529;BME280;35423;37.320;-121.762;2023-10-31T12:35:30;100357.83;;;17.53;18.70
49529;BME280;35423;37.320;-121.762;2023-10-31T12:37:56;100358.83;;;18.01;18.70
49529;BME280;35423;37.320;-121.762;2023-10-31T12:40:21;100359.05;;;18.41;18.71